23 mei 2022

Tijd Code Weer Temp. Zicht Wolken Wind METAR/SPECI
11:00
V
15 °C 14 km - 330°   330° 9 19 kt METAR CYBW 231700Z AUTO 33009G19KT 250V350 9SM CLR 15/M06 A2997 RMK SLP163 DENSITY ALT 4800FT
10:00
V
13 °C 14 km - 310°   310° 9 kt METAR CYBW 231600Z AUTO 31009KT 280V020 9SM CLR 13/M04 A2999 RMK SLP169 DENSITY ALT 4600FT
09:00
V
9 °C 14 km - 320°   320° 5 kt METAR CYBW 231500Z AUTO 32005KT 290V360 9SM CLR 09/M02 A3001 RMK SLP181 DENSITY ALT 4100FT
08:00
V
4 °C 14 km - 320°   320° 5 kt METAR CYBW 231400Z AUTO 32005KT 9SM CLR 04/M02 A3002 RMK SLP188
07:00
V
0 °C 14 km - 320°   320° 4 kt METAR CYBW 231300Z AUTO 32004KT 9SM CLR 00/M04 A3002 RMK SLP193
06:00
V
-2 °C 14 km - 320°   320° 4 kt METAR CYBW 231200Z AUTO 32004KT 9SM CLR M02/M05 A3003 RMK SLP198
05:00
V
-1 °C 14 km - 310°   310° 4 kt METAR CYBW 231100Z AUTO 31004KT 9SM CLR M01/M04 A3003 RMK SLP197
04:00
V
1 °C 14 km - 320°   320° 5 kt METAR CYBW 231000Z AUTO 32005KT 9SM CLR 01/M05 A3004 RMK SLP198
03:00
V
1 °C 14 km - 250°   250° 3 kt METAR CYBW 230900Z AUTO 25003KT 200V290 9SM CLR 01/M05 A3004 RMK SLP200
02:00
V
4 °C 14 km - 310°   310° 4 kt METAR CYBW 230800Z AUTO 31004KT 9SM CLR 04/M05 A3005 RMK SLP199
01:00
V
3 °C 14 km - 310°   310° 8 kt METAR CYBW 230700Z AUTO 31008KT 9SM CLR 03/M04 A3005 RMK SLP200
00:00
V
5 °C 14 km - 300°   300° 9 16 kt METAR CYBW 230600Z AUTO 30009G16KT 9SM CLR 05/M04 A3005 RMK SLP198

22 mei 2022

Tijd Code Weer Temp. Zicht Wolken Wind METAR/SPECI
23:00
V
8 °C 14 km 10.000 ft 260°   260° 6 kt METAR CYBW 230500Z AUTO 26006KT 9SM BKN100 OVC120 08/M03 A3005 RMK SLP194
22:00
V
9 °C 14 km 10.000 ft 220°   220° 6 kt METAR CYBW 230400Z AUTO 22006KT 9SM BKN100 OVC120 09/M03 A3004 RMK SLP193 DENSITY ALT 4100FT
21:00
V
10 °C 14 km 10.000 ft 210°   210° 8 kt METAR CYBW 230300Z AUTO 21008KT 9SM OVC100 10/M02 A3004 RMK SLP194 DENSITY ALT 4200FT
20:00
V
13 °C 14 km 12.000 ft 250°   250° 4 kt METAR CYBW 230200Z AUTO 25004KT 9SM SCT100 BKN120 13/M06 A3003 RMK SLP197 DENSITY ALT 4500FT
19:00
V
14 °C 14 km - 250°   250° 3 kt METAR CYBW 230100Z AUTO 25003KT 9SM FEW096 14/M08 A3003 RMK SLP200 DENSITY ALT 4700FT
18:00
V
14 °C 14 km - 350°   350° 8 kt METAR CYBW 230000Z AUTO 35008KT 310V040 9SM SCT100 14/M07 A3004 RMK SLP203 DENSITY ALT 4700FT
17:00
V
14 °C 14 km - 080°   080° 6 kt METAR CYBW 222300Z AUTO 08006KT 050V200 9SM SCT096 SCT120 14/M07 A3005 RMK SLP207 DENSITY ALT 4700FT
16:00
V
15 °C 14 km - 260°   260° 11 18 kt METAR CYBW 222200Z AUTO 26011G18KT 240V330 9SM SCT100 15/M08 A3006 RMK SLP211 DENSITY ALT 4700FT
15:00
V
14 °C 14 km - Var   Var 6 15 kt METAR CYBW 222100Z AUTO VRB06G15KT 9SM SCT091 14/M07 A3007 RMK SLP214 DENSITY ALT 4600FT
14:00
V
13 °C 14 km 9.600 ft Var   Var 8 kt METAR CYBW 222000Z AUTO VRB08KT 9SM BKN096 13/M08 A3008 RMK SLP220 DENSITY ALT 4500FT
13:00
V
13 °C 14 km 9.100 ft 360°   360° 12 17 kt METAR CYBW 221900Z AUTO 36012G17KT 290V020 9SM BKN091 13/M07 A3009 RMK SLP222 DENSITY ALT 4500FT
12:00
V
13 °C 14 km - 060°   060° 10 17 kt METAR CYBW 221800Z AUTO 06010G17KT 290V080 9SM SCT086 13/M07 A3010 RMK SLP223 DENSITY ALT 4400FT
11:00
V
12 °C 14 km - 360°   360° 13 22 kt METAR CYBW 221700Z AUTO 36013G22KT 290V010 9SM SCT076 12/M07 A3011 RMK SLP227 DENSITY ALT 4300FT
10:00
V
10 °C 14 km - 330°   330° 10 15 kt METAR CYBW 221600Z AUTO 33010G15KT 290V350 9SM CLR 10/M07 A3012 RMK SLP232 DENSITY ALT 4100FT
09:00
V
7 °C 14 km - 300°   300° 9 kt METAR CYBW 221500Z AUTO 30009KT 9SM CLR 07/M02 A3013 RMK SLP233
08:00
V
2 °C 14 km - 320°   320° 4 kt METAR CYBW 221400Z AUTO 32004KT 9SM CLR 02/M03 A3014 RMK SLP241
07:00
V
-2 °C 14 km - 320°   320° 6 kt METAR CYBW 221300Z AUTO 32006KT 9SM CLR M02/M04 A3014 RMK SLP246
06:00
V
-3 °C 14 km - 310°   310° 6 kt METAR CYBW 221200Z AUTO 31006KT 9SM CLR M03/M05 A3015 RMK SLP251
05:00
V
-4 °C 14 km - 300°   300° 6 kt METAR CYBW 221100Z AUTO 30006KT 9SM CLR M04/M05 A3016 RMK SLP257
04:00
V
-4 °C 14 km - 300°   300° 4 kt METAR CYBW 221000Z AUTO 30004KT 9SM CLR M04/M05 A3016 RMK SLP259
03:00
V
-2 °C 14 km - 310°   310° 4 kt METAR CYBW 220900Z AUTO 31004KT 9SM CLR M02/M04 A3018 RMK SLP261
02:00
V
-3 °C 14 km - 290°   290° 3 kt METAR CYBW 220800Z AUTO 29003KT 9SM CLR M03/M05 A3019 RMK SLP266
01:00
V
-2 °C 14 km - 210°   210° 9 kt METAR CYBW 220700Z AUTO 21009KT 9SM CLR M02/M05 A3019 RMK SLP267
00:00
V
-1 °C 14 km - 190°   190° 10 kt METAR CYBW 220600Z AUTO 19010KT 9SM CLR M01/M05 A3020 RMK SLP269

21 mei 2022

Tijd Code Weer Temp. Zicht Wolken Wind METAR/SPECI
23:00
V
1 °C 14 km - 190°   190° 9 kt METAR CYBW 220500Z AUTO 19009KT 9SM CLR 01/M05 A3021 RMK SLP271
22:00
V
2 °C 14 km - 190°   190° 6 kt METAR CYBW 220400Z AUTO 19006KT 9SM FEW091 02/M05 A3021 RMK SLP270
21:00
V
6 °C 14 km - 180°   180° 5 kt METAR CYBW 220300Z AUTO 18005KT 9SM FEW096 06/M05 A3021 RMK SLP267
20:00
V
8 °C 14 km - 180°   180° 8 kt METAR CYBW 220200Z AUTO 18008KT 9SM FEW096 08/M06 A3021 RMK SLP268
19:00
V
9 °C 14 km 9.100 ft 250°   250° 4 kt METAR CYBW 220100Z AUTO 25004KT 170V270 9SM OVC091 09/M07 A3022 RMK SLP271
18:00
V
8 °C 14 km 9.100 ft 330°   330° 5 kt METAR CYBW 220000Z AUTO 33005KT 280V050 9SM BKN091 08/M07 A3023 RMK SLP277
17:00
V
8 °C 14 km 9.100 ft Var   Var 2 kt METAR CYBW 212300Z AUTO VRB02KT 9SM OVC091 08/M07 A3024 RMK SLP281
16:00
V
8 °C 14 km 8.900 ft Var   Var 3 kt METAR CYBW 212200Z AUTO VRB03KT 9SM FEW038 SCT060 OVC089 08/M06 A3025 RMK SLP286
15:00
V
7 °C 14 km 6.000 ft Var   Var 2 kt METAR CYBW 212100Z AUTO VRB02KT 9SM BKN060 BKN086 07/M08 A3026 RMK SLP287
14:00
V
7 °C 14 km 8.700 ft 340°   340° 6 kt METAR CYBW 212000Z AUTO 34006KT 300V020 9SM SCT071 OVC087 07/M07 A3026 RMK SLP287
13:00
V
7 °C 14 km 8.100 ft 060°   060° 6 kt METAR CYBW 211900Z AUTO 06006KT 300V090 9SM OVC081 07/M07 A3027 RMK SLP289
12:00
V
6 °C 14 km - 010°   010° 6 kt METAR CYBW 211800Z AUTO 01006KT 310V050 9SM FEW060 06/M07 A3027 RMK SLP293
11:00
V
6 °C 14 km 6.000 ft 310°   310° 8 kt METAR CYBW 211700Z AUTO 31008KT 290V100 9SM BKN060 BKN076 06/M05 A3027 RMK SLP293
10:00
V
5 °C 14 km - 310°   310° 9 kt METAR CYBW 211600Z AUTO 31009KT 240V040 9SM CLR 05/M03 A3028 RMK SLP296
09:00
V
3 °C 14 km - 330°   330° 6 kt METAR CYBW 211500Z AUTO 33006KT 290V360 9SM FEW071 03/M02 A3029 RMK SLP301
Oudere gegevens

Installeer onze app

Gemakkelijke toegang tot al het luchtvaartweer op je mobiele telefoon en tablet.
Met veel functies die niet op de website beschikbaar zijn, zoals offline ondersteuning en een persoonlijke lijst van vliegvelden.

Met cookies volgen wij en derde partijen jouw internetgedrag binnen onze site. Als je verdergaat gaan we ervan uit dat je dit goedvindt. Meer info